PWSweather.com
Personal Weather Stations
Station Observations
WATERF01
WaterfordIE

WaterfordIE

Lat: 52.2412507, Lon: -7.1414691

Elevation: 65

Station Type: Davis Vantage Vue

www.waterfordweather.com

High Low Average
Temperature 40.8°F4.9°C 36.7°F2.6°C 38.7°F3.7°C
Dew Point 39.1°F3.9°C 34.4°F1.3°C 36.6°F2.6°C
Winds 11.5 mph 18.5 kmh Calm Calm 5.0 mph SW8.0 kmh SW
Wind Gusts 21.9 mph35.2 kmh -- 9.0 mph14.5 kmh
Humidity 94% 88% 92%
Pressure 29.49 in998.6 mb 29.11 in985.8 mb -
Precipitation 0.10 in2.5 mm - -
Hour Temp Dew Point Humidity Winds Wind Gusts Pressure Precip Precip Rate Daily Precip Total
12:00 AM 39.3°F4.1°C 36.9°F2.7°C 91% 3.5 mph WSW5.6 kmh WSW 8.1 mph13.0 kmh 29.49 in998.6 mb - 0.00 in0.0 mm 0.00 in0.0 mm
12:10 AM 38.7°F3.7°C 36.3°F2.4°C 91% 4.6 mph W7.4 kmh W 9.2 mph14.8 kmh 29.49 in998.6 mb - 0.00 in0.0 mm 0.00 in0.0 mm
12:20 AM 38.3°F3.5°C 36.2°F2.3°C 92% 4.6 mph WSW7.4 kmh WSW 5.8 mph9.3 kmh 29.48 in998.3 mb - 0.00 in0.0 mm 0.00 in0.0 mm
12:30 AM 38.3°F3.5°C 36.2°F2.3°C 92% 4.6 mph W7.4 kmh W 6.9 mph11.1 kmh 29.48 in998.3 mb - 0.00 in0.0 mm 0.00 in0.0 mm
12:40 AM 38.5°F3.6°C 36.4°F2.4°C 92% 6.9 mph W11.1 kmh W 11.5 mph18.5 kmh 29.48 in998.3 mb - 0.00 in0.0 mm 0.00 in0.0 mm
12:50 AM 39.6°F4.2°C 36.3°F2.4°C 88% 6.9 mph W11.1 kmh W 11.5 mph18.5 kmh 29.48 in998.3 mb - 0.00 in0.0 mm 0.00 in0.0 mm
01:00 AM 39.6°F4.2°C 36.4°F2.4°C 88% 4.6 mph WSW7.4 kmh WSW 11.5 mph18.5 kmh 29.48 in998.3 mb - 0.00 in0.0 mm 0.00 in0.0 mm
01:10 AM 38.5°F3.6°C 36.1°F2.3°C 91% 8.1 mph WSW13.0 kmh WSW 13.8 mph22.2 kmh 29.48 in998.3 mb - 0.00 in0.0 mm 0.00 in0.0 mm
01:20 AM 38.3°F3.5°C 36.2°F2.3°C 92% 6.9 mph WSW11.1 kmh WSW 12.7 mph20.4 kmh 29.48 in998.3 mb - 0.00 in0.0 mm 0.00 in0.0 mm
01:30 AM 38.3°F3.5°C 36.2°F2.3°C 92% 6.9 mph W11.1 kmh W 11.5 mph18.5 kmh 29.47 in998.0 mb - 0.00 in0.0 mm 0.00 in0.0 mm
01:40 AM 38.0°F3.3°C 36.2°F2.3°C 93% 5.8 mph W9.3 kmh W 11.5 mph18.5 kmh 29.47 in998.0 mb - 0.00 in0.0 mm 0.00 in0.0 mm
01:50 AM 37.8°F3.2°C 36.0°F2.2°C 93% 8.1 mph W13.0 kmh W 12.7 mph20.4 kmh 29.47 in998.0 mb - 0.00 in0.0 mm 0.00 in0.0 mm
02:00 AM 38.0°F3.3°C 36.2°F2.3°C 93% 8.1 mph WSW13.0 kmh WSW 12.7 mph20.4 kmh 29.47 in998.0 mb - 0.00 in0.0 mm 0.00 in0.0 mm
02:10 AM 38.0°F3.3°C 36.2°F2.3°C 93% 6.9 mph W11.1 kmh W 8.1 mph13.0 kmh 29.47 in998.0 mb - 0.00 in0.0 mm 0.00 in0.0 mm
02:20 AM 38.2°F3.4°C 36.1°F2.3°C 92% 8.1 mph W13.0 kmh W 11.5 mph18.5 kmh 29.47 in998.0 mb - 0.00 in0.0 mm 0.00 in0.0 mm
02:30 AM 38.3°F3.5°C 36.2°F2.3°C 92% 6.9 mph W11.1 kmh W 11.5 mph18.5 kmh 29.47 in998.0 mb - 0.00 in0.0 mm 0.00 in0.0 mm
02:40 AM 38.4°F3.6°C 36.3°F2.4°C 92% 6.9 mph W11.1 kmh W 13.8 mph22.2 kmh 29.47 in998.0 mb - 0.00 in0.0 mm 0.00 in0.0 mm
02:50 AM 38.2°F3.4°C 35.8°F2.1°C 91% 6.9 mph W11.1 kmh W 9.2 mph14.8 kmh 29.47 in998.0 mb - 0.00 in0.0 mm 0.00 in0.0 mm
03:00 AM 37.7°F3.2°C 35.6°F2.0°C 92% 5.8 mph WSW9.3 kmh WSW 9.2 mph14.8 kmh 29.47 in998.0 mb - 0.00 in0.0 mm 0.00 in0.0 mm
03:10 AM 37.8°F3.2°C 35.7°F2.1°C 92% 5.8 mph W9.3 kmh W 9.2 mph14.8 kmh 29.47 in998.0 mb - 0.00 in0.0 mm 0.00 in0.0 mm
03:20 AM 37.5°F3.1°C 35.7°F2.1°C 93% 5.8 mph W9.3 kmh W 8.1 mph13.0 kmh 29.47 in998.0 mb - 0.00 in0.0 mm 0.00 in0.0 mm
03:30 AM 37.3°F2.9°C 35.5°F1.9°C 93% 4.6 mph W7.4 kmh W 5.8 mph9.3 kmh 29.46 in997.6 mb - 0.00 in0.0 mm 0.00 in0.0 mm
03:40 AM 37.1°F2.8°C 35.3°F1.8°C 93% 6.9 mph W11.1 kmh W 8.1 mph13.0 kmh 29.46 in997.6 mb - 0.00 in0.0 mm 0.00 in0.0 mm
03:50 AM 36.9°F2.7°C 35.3°F1.8°C 94% 4.6 mph W7.4 kmh W 8.1 mph13.0 kmh 29.46 in997.6 mb - 0.00 in0.0 mm 0.00 in0.0 mm
04:00 AM 36.7°F2.6°C 35.2°F1.8°C 94% 4.6 mph W7.4 kmh W 8.1 mph13.0 kmh 29.46 in997.6 mb - 0.00 in0.0 mm 0.00 in0.0 mm
04:10 AM 37.1°F2.8°C 35.3°F1.8°C 93% 4.6 mph W7.4 kmh W 8.1 mph13.0 kmh 29.45 in997.3 mb - 0.00 in0.0 mm 0.00 in0.0 mm
04:20 AM 36.7°F2.6°C 34.9°F1.6°C 93% 3.5 mph W5.6 kmh W 5.8 mph9.3 kmh 29.45 in997.3 mb - 0.00 in0.0 mm 0.00 in0.0 mm
04:30 AM 36.7°F2.6°C 35.1°F1.7°C 94% 4.6 mph W7.4 kmh W 8.1 mph13.0 kmh 29.45 in997.3 mb - 0.00 in0.0 mm 0.00 in0.0 mm
04:40 AM 37.1°F2.8°C 35.3°F1.8°C 93% 5.8 mph WNW9.3 kmh WNW 8.1 mph13.0 kmh 29.45 in997.3 mb - 0.00 in0.0 mm 0.00 in0.0 mm
04:50 AM 37.7°F3.2°C 35.9°F2.2°C 93% 5.8 mph W9.3 kmh W 9.2 mph14.8 kmh 29.45 in997.3 mb - 0.00 in0.0 mm 0.00 in0.0 mm
05:00 AM 38.5°F3.6°C 36.1°F2.3°C 91% 6.9 mph WNW11.1 kmh WNW 9.2 mph14.8 kmh 29.45 in997.3 mb - 0.00 in0.0 mm 0.00 in0.0 mm
05:10 AM 38.2°F3.4°C 35.8°F2.1°C 91% 4.6 mph W7.4 kmh W 8.1 mph13.0 kmh 29.44 in997.0 mb - 0.00 in0.0 mm 0.00 in0.0 mm
05:20 AM 37.7°F3.2°C 35.6°F2.0°C 92% 5.8 mph WSW9.3 kmh WSW 9.2 mph14.8 kmh 29.44 in997.0 mb - 0.00 in0.0 mm 0.00 in0.0 mm
05:30 AM 37.9°F3.3°C 35.8°F2.1°C 92% 5.8 mph WNW9.3 kmh WNW 12.7 mph20.4 kmh 29.45 in997.3 mb - 0.00 in0.0 mm 0.00 in0.0 mm
05:40 AM 37.9°F3.3°C 35.8°F2.1°C 92% 3.5 mph W5.6 kmh W 6.9 mph11.1 kmh 29.44 in997.0 mb - 0.00 in0.0 mm 0.00 in0.0 mm
05:50 AM 37.8°F3.2°C 35.6°F2.0°C 92% 2.3 mph W3.7 kmh W 5.8 mph9.3 kmh 29.44 in997.0 mb - 0.00 in0.0 mm 0.00 in0.0 mm
06:00 AM 37.8°F3.2°C 35.7°F2.1°C 92% 1.2 mph W1.9 kmh W 4.6 mph7.4 kmh 29.45 in997.3 mb - 0.00 in0.0 mm 0.00 in0.0 mm
06:10 AM 37.6°F3.1°C 35.5°F1.9°C 92% 3.5 mph W5.6 kmh W 8.1 mph13.0 kmh 29.44 in997.0 mb - 0.00 in0.0 mm 0.00 in0.0 mm
06:20 AM 37.9°F3.3°C 35.8°F2.1°C 92% 1.2 mph W1.9 kmh W 2.3 mph3.7 kmh 29.43 in996.6 mb - 0.00 in0.0 mm 0.00 in0.0 mm
06:30 AM 37.6°F3.1°C 35.5°F1.9°C 92% 1.2 mph W1.9 kmh W 5.8 mph9.3 kmh 29.43 in996.6 mb - 0.00 in0.0 mm 0.00 in0.0 mm
06:40 AM 37.5°F3.1°C 35.4°F1.9°C 92% Calm Calm -- 29.43 in996.6 mb - 0.00 in0.0 mm 0.00 in0.0 mm
06:50 AM 37.7°F3.2°C 35.6°F2.0°C 92% 2.3 mph WNW3.7 kmh WNW 5.8 mph9.3 kmh 29.42 in996.3 mb - 0.00 in0.0 mm 0.00 in0.0 mm
07:00 AM 37.9°F3.3°C 35.8°F2.1°C 92% 1.2 mph WNW1.9 kmh WNW 4.6 mph7.4 kmh 29.43 in996.6 mb - 0.00 in0.0 mm 0.00 in0.0 mm
07:10 AM 37.7°F3.2°C 35.6°F2.0°C 92% 1.2 mph W1.9 kmh W 6.9 mph11.1 kmh 29.43 in996.6 mb - 0.00 in0.0 mm 0.00 in0.0 mm
07:20 AM 37.7°F3.2°C 35.6°F2.0°C 92% 2.3 mph WNW3.7 kmh WNW 5.8 mph9.3 kmh 29.42 in996.3 mb - 0.00 in0.0 mm 0.00 in0.0 mm
07:30 AM 37.5°F3.1°C 35.4°F1.9°C 92% 3.5 mph W5.6 kmh W 4.6 mph7.4 kmh 29.42 in996.3 mb - 0.00 in0.0 mm 0.00 in0.0 mm
07:40 AM 37.4°F3.0°C 35.3°F1.8°C 92% 1.2 mph W1.9 kmh W 5.8 mph9.3 kmh 29.41 in995.9 mb - 0.00 in0.0 mm 0.00 in0.0 mm
07:50 AM 37.3°F2.9°C 35.1°F1.7°C 92% 1.2 mph SE1.9 kmh SE 2.3 mph3.7 kmh 29.41 in995.9 mb - 0.00 in0.0 mm 0.00 in0.0 mm
08:00 AM 37.0°F2.8°C 35.2°F1.8°C 93% 3.5 mph W5.6 kmh W 6.9 mph11.1 kmh 29.40 in995.6 mb - 0.00 in0.0 mm 0.00 in0.0 mm
08:10 AM 38.0°F3.3°C 35.6°F2.0°C 91% 4.6 mph WNW7.4 kmh WNW 6.9 mph11.1 kmh 29.40 in995.6 mb - 0.00 in0.0 mm 0.00 in0.0 mm
08:20 AM 37.9°F3.3°C 35.5°F1.9°C 91% 4.6 mph SW7.4 kmh SW 6.9 mph11.1 kmh 29.39 in995.3 mb - 0.00 in0.0 mm 0.00 in0.0 mm
08:30 AM 37.6°F3.1°C 35.2°F1.8°C 91% 3.5 mph W5.6 kmh W 8.1 mph13.0 kmh 29.38 in994.9 mb - 0.00 in0.0 mm 0.00 in0.0 mm
08:40 AM 37.5°F3.1°C 35.1°F1.7°C 91% 2.3 mph WNW3.7 kmh WNW 4.6 mph7.4 kmh 29.38 in994.9 mb - 0.00 in0.0 mm 0.00 in0.0 mm
08:50 AM 37.6°F3.1°C 35.2°F1.8°C 91% 2.3 mph W3.7 kmh W 5.8 mph9.3 kmh 29.37 in994.6 mb - 0.00 in0.0 mm 0.00 in0.0 mm
09:00 AM 37.8°F3.2°C 35.4°F1.9°C 91% 3.5 mph NW5.6 kmh NW 5.8 mph9.3 kmh 29.36 in994.2 mb - 0.00 in0.0 mm 0.00 in0.0 mm
09:10 AM 37.7°F3.2°C 35.3°F1.8°C 91% Calm Calm 1.2 mph1.9 kmh 29.36 in994.2 mb - 0.00 in0.0 mm 0.00 in0.0 mm
09:20 AM 37.2°F2.9°C 35.1°F1.7°C 92% Calm Calm -- 29.36 in994.2 mb - 0.00 in0.0 mm 0.00 in0.0 mm
09:30 AM 37.2°F2.9°C 35.1°F1.7°C 92% Calm Calm -- 29.36 in994.2 mb - 0.00 in0.0 mm 0.00 in0.0 mm
09:40 AM 37.4°F3.0°C 35.3°F1.8°C 92% 1.2 mph SSW1.9 kmh SSW 2.3 mph3.7 kmh 29.36 in994.2 mb - 0.00 in0.0 mm 0.00 in0.0 mm
09:50 AM 37.8°F3.2°C 35.7°F2.1°C 92% Calm Calm -- 29.36 in994.2 mb - 0.00 in0.0 mm 0.00 in0.0 mm
10:00 AM 38.0°F3.3°C 35.9°F2.2°C 92% Calm Calm -- 29.35 in993.9 mb - 0.00 in0.0 mm 0.00 in0.0 mm
10:10 AM 38.3°F3.5°C 36.2°F2.3°C 92% Calm Calm -- 29.34 in993.6 mb - 0.00 in0.0 mm 0.00 in0.0 mm
10:20 AM 38.6°F3.7°C 36.5°F2.5°C 92% 1.2 mph E1.9 kmh E 2.3 mph3.7 kmh 29.34 in993.6 mb - 0.00 in0.0 mm 0.00 in0.0 mm
10:30 AM 38.6°F3.7°C 36.7°F2.6°C 93% 1.2 mph E1.9 kmh E 2.3 mph3.7 kmh 29.33 in993.2 mb - 0.00 in0.0 mm 0.00 in0.0 mm
10:40 AM 38.7°F3.7°C 36.9°F2.7°C 93% Calm Calm -- 29.32 in992.9 mb - 0.00 in0.0 mm 0.00 in0.0 mm
10:50 AM 38.9°F3.8°C 37.0°F2.8°C 93% 1.2 mph E1.9 kmh E 2.3 mph3.7 kmh 29.32 in992.9 mb - 0.00 in0.0 mm 0.00 in0.0 mm
11:00 AM 39.2°F4.0°C 37.3°F2.9°C 93% 2.3 mph E3.7 kmh E 4.6 mph7.4 kmh 29.31 in992.6 mb - 0.00 in0.0 mm 0.00 in0.0 mm
11:10 AM 39.5°F4.2°C 37.6°F3.1°C 93% 1.2 mph E1.9 kmh E 2.3 mph3.7 kmh 29.30 in992.2 mb - 0.00 in0.0 mm 0.00 in0.0 mm
11:20 AM 39.8°F4.3°C 38.2°F3.4°C 94% Calm Calm 2.3 mph3.7 kmh 29.30 in992.2 mb - 0.00 in0.0 mm 0.00 in0.0 mm
11:30 AM 39.9°F4.4°C 38.3°F3.5°C 94% Calm Calm 2.3 mph3.7 kmh 29.29 in991.9 mb - 0.00 in0.0 mm 0.00 in0.0 mm
11:40 AM 40.2°F4.6°C 38.6°F3.7°C 94% Calm Calm 2.3 mph3.7 kmh 29.28 in991.5 mb - 0.00 in0.0 mm 0.00 in0.0 mm
11:50 AM 40.5°F4.7°C 38.9°F3.8°C 94% 1.2 mph E1.9 kmh E 4.6 mph7.4 kmh 29.27 in991.2 mb - 0.00 in0.0 mm 0.00 in0.0 mm
12:00 PM 40.7°F4.8°C 39.1°F3.9°C 94% 1.2 mph E1.9 kmh E 5.8 mph9.3 kmh 29.27 in991.2 mb - 0.00 in0.0 mm 0.00 in0.0 mm
12:10 PM 40.7°F4.8°C 38.8°F3.8°C 93% 2.3 mph E3.7 kmh E 6.9 mph11.1 kmh 29.26 in990.9 mb - 0.00 in0.0 mm 0.00 in0.0 mm
12:20 PM 40.7°F4.8°C 38.8°F3.8°C 93% 2.3 mph E3.7 kmh E 4.6 mph7.4 kmh 29.25 in990.5 mb - 0.00 in0.0 mm 0.00 in0.0 mm
12:30 PM 40.7°F4.8°C 38.8°F3.8°C 93% 2.3 mph E3.7 kmh E 5.8 mph9.3 kmh 29.23 in989.8 mb - 0.00 in0.0 mm 0.00 in0.0 mm
12:40 PM 40.7°F4.8°C 38.8°F3.8°C 93% 2.3 mph E3.7 kmh E 4.6 mph7.4 kmh 29.23 in989.8 mb - 0.00 in0.0 mm 0.00 in0.0 mm
12:50 PM 40.8°F4.9°C 38.9°F3.8°C 93% 1.2 mph E1.9 kmh E 2.3 mph3.7 kmh 29.22 in989.5 mb - 0.00 in0.0 mm 0.00 in0.0 mm
01:00 PM 40.8°F4.9°C 38.9°F3.8°C 93% 4.6 mph E7.4 kmh E 8.1 mph13.0 kmh 29.21 in989.2 mb - 0.00 in0.0 mm 0.00 in0.0 mm
01:10 PM 40.7°F4.8°C 38.8°F3.8°C 93% 6.9 mph E11.1 kmh E 9.2 mph14.8 kmh 29.20 in988.8 mb - 0.00 in0.0 mm 0.00 in0.0 mm
01:20 PM 40.5°F4.7°C 38.6°F3.7°C 93% 4.6 mph E7.4 kmh E 9.2 mph14.8 kmh 29.19 in988.5 mb - 0.00 in0.0 mm 0.00 in0.0 mm
01:30 PM 40.3°F4.6°C 38.4°F3.6°C 93% 2.3 mph E3.7 kmh E 4.6 mph7.4 kmh 29.19 in988.5 mb - 0.00 in0.0 mm 0.00 in0.0 mm
01:40 PM 40.3°F4.6°C 38.7°F3.7°C 94% 1.2 mph E1.9 kmh E 8.1 mph13.0 kmh 29.18 in988.1 mb - 0.00 in0.0 mm 0.00 in0.0 mm
01:50 PM 40.4°F4.7°C 38.8°F3.8°C 94% Calm Calm 2.3 mph3.7 kmh 29.16 in987.5 mb - 0.00 in0.0 mm 0.00 in0.0 mm
02:00 PM 40.4°F4.7°C 38.8°F3.8°C 94% Calm Calm 4.6 mph7.4 kmh 29.16 in987.5 mb - 0.00 in0.0 mm 0.00 in0.0 mm
02:10 PM 40.5°F4.7°C 38.6°F3.7°C 93% 1.2 mph E1.9 kmh E 2.3 mph3.7 kmh 29.15 in987.1 mb - 0.00 in0.0 mm 0.00 in0.0 mm
02:20 PM 40.6°F4.8°C 38.7°F3.7°C 93% 2.3 mph E3.7 kmh E 5.8 mph9.3 kmh 29.14 in986.8 mb - 0.00 in0.0 mm 0.00 in0.0 mm
02:30 PM 40.7°F4.8°C 38.5°F3.6°C 92% 3.5 mph E5.6 kmh E 6.9 mph11.1 kmh 29.14 in986.8 mb - 0.00 in0.0 mm 0.00 in0.0 mm
02:40 PM 40.6°F4.8°C 38.4°F3.6°C 92% 3.5 mph E5.6 kmh E 8.1 mph13.0 kmh 29.13 in986.5 mb - 0.00 in0.0 mm 0.00 in0.0 mm
02:50 PM 40.4°F4.7°C 38.3°F3.5°C 92% 3.5 mph E5.6 kmh E 8.1 mph13.0 kmh 29.13 in986.5 mb - 0.01 in0.3 mm 0.01 in0.3 mm
03:00 PM 40.3°F4.6°C 38.4°F3.6°C 93% 4.6 mph E7.4 kmh E 11.5 mph18.5 kmh 29.12 in986.1 mb - 0.01 in0.3 mm 0.02 in0.5 mm
03:10 PM 40.1°F4.5°C 38.2°F3.4°C 93% 3.5 mph E5.6 kmh E 12.7 mph20.4 kmh 29.12 in986.1 mb - 0.01 in0.3 mm 0.02 in0.5 mm
03:20 PM 39.8°F4.3°C 37.9°F3.3°C 93% 4.6 mph ENE7.4 kmh ENE 13.8 mph22.2 kmh 29.12 in986.1 mb - 0.02 in0.5 mm 0.04 in1.0 mm
03:30 PM 39.7°F4.3°C 37.8°F3.2°C 93% 4.6 mph E7.4 kmh E 9.2 mph14.8 kmh 29.11 in985.8 mb - 0.01 in0.3 mm 0.05 in1.3 mm
03:40 PM 39.6°F4.2°C 37.7°F3.2°C 93% 3.5 mph NW5.6 kmh NW 5.8 mph9.3 kmh 29.11 in985.8 mb - 0.01 in0.3 mm 0.06 in1.5 mm
03:50 PM 39.7°F4.3°C 38.1°F3.4°C 94% 4.6 mph ESE7.4 kmh ESE 11.5 mph18.5 kmh 29.11 in985.8 mb - 0.01 in0.3 mm 0.07 in1.8 mm
04:00 PM 39.8°F4.3°C 38.2°F3.4°C 94% 3.5 mph E5.6 kmh E 11.5 mph18.5 kmh 29.11 in985.8 mb - 0.00 in0.0 mm 0.07 in1.8 mm
04:10 PM 39.9°F4.4°C 38.0°F3.3°C 93% 4.6 mph SW7.4 kmh SW 9.2 mph14.8 kmh 29.11 in985.8 mb - 0.01 in0.3 mm 0.08 in2.0 mm
04:20 PM 40.0°F4.4°C 38.1°F3.4°C 93% 5.8 mph E9.3 kmh E 11.5 mph18.5 kmh 29.11 in985.8 mb - 0.00 in0.0 mm 0.08 in2.0 mm
04:30 PM 40.1°F4.5°C 38.2°F3.4°C 93% 5.8 mph NE9.3 kmh NE 19.6 mph31.5 kmh 29.11 in985.8 mb - 0.01 in0.3 mm 0.09 in2.3 mm
04:40 PM 40.1°F4.5°C 38.0°F3.3°C 92% 6.9 mph 11.1 kmh 13.8 mph22.2 kmh 29.11 in985.8 mb - 0.01 in0.3 mm 0.09 in2.3 mm
04:50 PM 40.1°F4.5°C 37.7°F3.2°C 91% 6.9 mph NE11.1 kmh NE 12.7 mph20.4 kmh 29.11 in985.8 mb - 0.01 in0.3 mm 0.10 in2.5 mm
05:00 PM 40.3°F4.6°C 37.9°F3.3°C 91% 4.6 mph ENE7.4 kmh ENE 8.1 mph13.0 kmh 29.11 in985.8 mb - 0.00 in0.0 mm 0.10 in2.5 mm
05:10 PM 40.3°F4.6°C 37.9°F3.3°C 91% 4.6 mph SSE7.4 kmh SSE 9.2 mph14.8 kmh 29.11 in985.8 mb - 0.00 in0.0 mm 0.10 in2.5 mm
05:20 PM 40.2°F4.6°C 37.5°F3.1°C 90% 4.6 mph WSW7.4 kmh WSW 9.2 mph14.8 kmh 29.11 in985.8 mb - 0.00 in0.0 mm 0.10 in2.5 mm
05:30 PM 40.3°F4.6°C 37.3°F2.9°C 89% 2.3 mph NE3.7 kmh NE 12.7 mph20.4 kmh 29.11 in985.8 mb - 0.00 in0.0 mm 0.10 in2.5 mm
05:40 PM 40.3°F4.6°C 37.3°F2.9°C 89% 2.3 mph NNW3.7 kmh NNW 9.2 mph14.8 kmh 29.11 in985.8 mb - 0.00 in0.0 mm 0.10 in2.5 mm
05:50 PM 40.3°F4.6°C 37.3°F2.9°C 89% 3.5 mph W5.6 kmh W 5.8 mph9.3 kmh 29.12 in986.1 mb - 0.00 in0.0 mm 0.10 in2.5 mm
06:00 PM 40.3°F4.6°C 37.6°F3.1°C 90% 4.6 mph NNW7.4 kmh NNW 13.8 mph22.2 kmh 29.12 in986.1 mb - 0.00 in0.0 mm 0.10 in2.5 mm
06:10 PM 40.1°F4.5°C 37.7°F3.2°C 91% 3.5 mph NW5.6 kmh NW 4.6 mph7.4 kmh 29.12 in986.1 mb - 0.00 in0.0 mm 0.10 in2.5 mm
06:20 PM 40.1°F4.5°C 37.6°F3.1°C 91% 3.5 mph NW5.6 kmh NW 9.2 mph14.8 kmh 29.13 in986.5 mb - 0.00 in0.0 mm 0.10 in2.5 mm
06:30 PM 40.0°F4.4°C 37.9°F3.3°C 92% 4.6 mph NNW7.4 kmh NNW 9.2 mph14.8 kmh 29.13 in986.5 mb - 0.00 in0.0 mm 0.10 in2.5 mm
06:40 PM 40.1°F4.5°C 37.7°F3.2°C 91% 4.6 mph NNW7.4 kmh NNW 21.9 mph35.2 kmh 29.13 in986.5 mb - 0.00 in0.0 mm 0.10 in2.5 mm
06:50 PM 40.1°F4.5°C 37.7°F3.2°C 91% 5.8 mph N9.3 kmh N 11.5 mph18.5 kmh 29.13 in986.5 mb - 0.00 in0.0 mm 0.10 in2.5 mm
07:00 PM 39.9°F4.4°C 37.5°F3.1°C 91% 4.6 mph NW7.4 kmh NW 11.5 mph18.5 kmh 29.14 in986.8 mb - 0.00 in0.0 mm 0.10 in2.5 mm
07:10 PM 39.8°F4.3°C 37.4°F3.0°C 91% 4.6 mph NNW7.4 kmh NNW 11.5 mph18.5 kmh 29.14 in986.8 mb - 0.00 in0.0 mm 0.10 in2.5 mm
07:20 PM 39.7°F4.3°C 37.3°F2.9°C 91% 6.9 mph NNW11.1 kmh NNW 13.8 mph22.2 kmh 29.15 in987.1 mb - 0.00 in0.0 mm 0.10 in2.5 mm
07:30 PM 39.4°F4.1°C 37.3°F2.9°C 92% 8.1 mph NW13.0 kmh NW 12.7 mph20.4 kmh 29.15 in987.1 mb - 0.00 in0.0 mm 0.10 in2.5 mm
07:40 PM 39.1°F3.9°C 37.0°F2.8°C 92% 8.1 mph NNW13.0 kmh NNW 16.1 mph25.9 kmh 29.16 in987.5 mb - 0.00 in0.0 mm 0.10 in2.5 mm
07:50 PM 38.7°F3.7°C 36.6°F2.6°C 92% 8.1 mph NNW13.0 kmh NNW 20.7 mph33.3 kmh 29.16 in987.5 mb - 0.00 in0.0 mm 0.10 in2.5 mm
08:00 PM 38.5°F3.6°C 36.4°F2.4°C 92% 5.8 mph NNW9.3 kmh NNW 15.0 mph24.1 kmh 29.16 in987.5 mb - 0.00 in0.0 mm 0.10 in2.5 mm
08:10 PM 38.1°F3.4°C 36.0°F2.2°C 92% 9.2 mph NNW14.8 kmh NNW 20.7 mph33.3 kmh 29.16 in987.5 mb - 0.00 in0.0 mm 0.10 in2.5 mm
08:20 PM 38.1°F3.4°C 36.3°F2.4°C 93% 9.2 mph NNW14.8 kmh NNW 18.4 mph29.6 kmh 29.16 in987.5 mb - 0.00 in0.0 mm 0.10 in2.5 mm
08:30 PM 38.1°F3.4°C 36.3°F2.4°C 93% 9.2 mph NNW14.8 kmh NNW 16.1 mph25.9 kmh 29.17 in987.8 mb - 0.00 in0.0 mm 0.10 in2.5 mm
08:40 PM 38.3°F3.5°C 36.5°F2.5°C 93% 8.1 mph NNW13.0 kmh NNW 13.8 mph22.2 kmh 29.18 in988.1 mb - 0.00 in0.0 mm 0.10 in2.5 mm
08:50 PM 38.3°F3.5°C 36.5°F2.5°C 93% 8.1 mph NNW13.0 kmh NNW 16.1 mph25.9 kmh 29.18 in988.1 mb - 0.00 in0.0 mm 0.10 in2.5 mm
09:00 PM 38.1°F3.4°C 36.3°F2.4°C 93% 5.8 mph NW9.3 kmh NW 9.2 mph14.8 kmh 29.19 in988.5 mb - 0.00 in0.0 mm 0.10 in2.5 mm
09:10 PM 37.9°F3.3°C 36.1°F2.3°C 93% 8.1 mph NNW13.0 kmh NNW 15.0 mph24.1 kmh 29.20 in988.8 mb - 0.00 in0.0 mm 0.10 in2.5 mm
09:20 PM 38.1°F3.4°C 36.0°F2.2°C 92% 9.2 mph NW14.8 kmh NW 13.8 mph22.2 kmh 29.20 in988.8 mb - 0.00 in0.0 mm 0.10 in2.5 mm
09:30 PM 38.5°F3.6°C 36.3°F2.4°C 92% 9.2 mph NNW14.8 kmh NNW 13.8 mph22.2 kmh 29.21 in989.2 mb - 0.00 in0.0 mm 0.10 in2.5 mm
09:40 PM 38.6°F3.7°C 36.5°F2.5°C 92% 8.1 mph NW13.0 kmh NW 11.5 mph18.5 kmh 29.21 in989.2 mb - 0.00 in0.0 mm 0.10 in2.5 mm
09:50 PM 38.6°F3.7°C 36.5°F2.5°C 92% 10.4 mph NW16.7 kmh NW 16.1 mph25.9 kmh 29.22 in989.5 mb - 0.00 in0.0 mm 0.10 in2.5 mm
10:00 PM 38.5°F3.6°C 36.4°F2.4°C 92% 10.4 mph NNW16.7 kmh NNW 18.4 mph29.6 kmh 29.22 in989.5 mb - 0.00 in0.0 mm 0.10 in2.5 mm
10:10 PM 38.3°F3.5°C 36.2°F2.3°C 92% 8.1 mph NNW13.0 kmh NNW 15.0 mph24.1 kmh 29.23 in989.8 mb - 0.00 in0.0 mm 0.10 in2.5 mm
10:20 PM 38.1°F3.4°C 36.0°F2.2°C 92% 8.1 mph NW13.0 kmh NW 13.8 mph22.2 kmh 29.23 in989.8 mb - 0.00 in0.0 mm 0.10 in2.5 mm
10:30 PM 38.0°F3.3°C 35.9°F2.2°C 92% 10.4 mph NW16.7 kmh NW 18.4 mph29.6 kmh 29.24 in990.2 mb - 0.00 in0.0 mm 0.10 in2.5 mm
10:40 PM 37.8°F3.2°C 35.7°F2.1°C 92% 9.2 mph NNW14.8 kmh NNW 16.1 mph25.9 kmh 29.25 in990.5 mb - 0.00 in0.0 mm 0.10 in2.5 mm
10:50 PM 37.5°F3.1°C 35.4°F1.9°C 92% 9.2 mph NW14.8 kmh NW 16.1 mph25.9 kmh 29.25 in990.5 mb - 0.00 in0.0 mm 0.10 in2.5 mm
11:00 PM 37.5°F3.1°C 35.4°F1.9°C 92% 11.5 mph NW18.5 kmh NW 16.1 mph25.9 kmh 29.26 in990.9 mb - 0.00 in0.0 mm 0.10 in2.5 mm
11:10 PM 37.3°F2.9°C 34.9°F1.6°C 91% 9.2 mph NW14.8 kmh NW 19.6 mph31.5 kmh 29.28 in991.5 mb - 0.00 in0.0 mm 0.10 in2.5 mm
11:20 PM 37.2°F2.9°C 34.8°F1.6°C 91% 6.9 mph NW11.1 kmh NW 13.8 mph22.2 kmh 29.29 in991.9 mb - 0.00 in0.0 mm 0.10 in2.5 mm
11:30 PM 37.3°F2.9°C 34.6°F1.4°C 90% 6.9 mph WNW11.1 kmh WNW 8.1 mph13.0 kmh 29.29 in991.9 mb - 0.00 in0.0 mm 0.10 in2.5 mm
11:40 PM 37.1°F2.8°C 34.4°F1.3°C 90% 6.9 mph NW11.1 kmh NW 11.5 mph18.5 kmh 29.30 in992.2 mb - 0.00 in0.0 mm 0.10 in2.5 mm
11:50 PM 36.8°F2.7°C 34.4°F1.3°C 91% 6.9 mph NW11.1 kmh NW 12.7 mph20.4 kmh 29.30 in992.2 mb - 0.00 in0.0 mm 0.10 in2.5 mm